AAL949 KJAX-KDCA
Flight info
| Callsign | AAL949 |
|---|---|
| Flight time | 1h 23m |
| Altitude | 39000 |
| Route | CROSB2 WISPR JROSS Q87 RAYVO Q113 AARNN WAVES CAPSS4 |
| Aircraft | A319/M-SDE3FGHIRWY/LB1 |
Departure
| Time | 2026-04-26 20:16 |
|---|---|
| Airport | Jacksonville International Airport (KJAX) |
Arrival
| Time | 2026-04-26 21:39 |
|---|---|
| Airport | Ronald Reagan Washington National Airport (KDCA) |
| Time | Latitude | Longitude | Altitude | Speed | Heading |
|---|---|---|---|---|---|
| 2026-04-26 20:00 | 30.48999 | -81.68700 | 35 ft | 0 kts | 100° |
| 2026-04-26 20:09 | 30.49000 | -81.68701 | 35 ft | 1 kts | 100° |
| 2026-04-26 20:09 | 30.49006 | -81.68728 | 33 ft | 4 kts | 123° |
| 2026-04-26 20:10 | 30.49024 | -81.68749 | 35 ft | 4 kts | 155° |
| 2026-04-26 20:10 | 30.49049 | -81.68755 | 35 ft | 4 kts | 195° |
| 2026-04-26 20:10 | 30.49057 | -81.68753 | 34 ft | 0 kts | 208° |
| 2026-04-26 20:12 | 30.49056 | -81.68753 | 35 ft | 1 kts | 208° |
| 2026-04-26 20:12 | 30.49035 | -81.68768 | 35 ft | 6 kts | 220° |
| 2026-04-26 20:12 | 30.49027 | -81.68831 | 35 ft | 11 kts | 298° |
| 2026-04-26 20:12 | 30.49069 | -81.68925 | 35 ft | 15 kts | 296° |
| 2026-04-26 20:13 | 30.49131 | -81.69032 | 35 ft | 17 kts | 337° |
| 2026-04-26 20:13 | 30.49254 | -81.69013 | 35 ft | 19 kts | 10° |
| 2026-04-26 20:13 | 30.49386 | -81.68989 | 35 ft | 20 kts | 0° |
| 2026-04-26 20:13 | 30.49511 | -81.69059 | 35 ft | 21 kts | 330° |
| 2026-04-26 20:14 | 30.49643 | -81.69148 | 35 ft | 22 kts | 329° |
| 2026-04-26 20:14 | 30.49668 | -81.69272 | 36 ft | 17 kts | 250° |
| 2026-04-26 20:14 | 30.49627 | -81.69407 | 36 ft | 18 kts | 250° |
| 2026-04-26 20:14 | 30.49583 | -81.69549 | 36 ft | 19 kts | 250° |
| 2026-04-26 20:15 | 30.49537 | -81.69700 | 35 ft | 20 kts | 250° |
| 2026-04-26 20:15 | 30.49488 | -81.69858 | 35 ft | 19 kts | 251° |
| 2026-04-26 20:15 | 30.49555 | -81.69955 | 35 ft | 19 kts | 341° |
| 2026-04-26 20:15 | 30.49646 | -81.69923 | 34 ft | 16 kts | 70° |
| 2026-04-26 20:16 | 30.49728 | -81.69655 | 35 ft | 70 kts | 71° |
| 2026-04-26 20:16 | 30.49967 | -81.68872 | 36 ft | 134 kts | 71° |
| 2026-04-26 20:16 | 30.50303 | -81.67748 | 485 ft | 143 kts | 73° |
| 2026-04-26 20:16 | 30.50661 | -81.66656 | 1166 ft | 150 kts | 62° |
| 2026-04-26 20:17 | 30.51321 | -81.65675 | 1915 ft | 164 kts | 37° |
| 2026-04-26 20:17 | 30.52353 | -81.64905 | 2601 ft | 189 kts | 26° |
| 2026-04-26 20:17 | 30.53615 | -81.64220 | 3216 ft | 211 kts | 21° |
| 2026-04-26 20:17 | 30.54549 | -81.63798 | 3576 ft | 225 kts | 19° |
| 2026-04-26 20:18 | 30.56655 | -81.62942 | 4379 ft | 259 kts | 16° |
| 2026-04-26 20:18 | 30.58405 | -81.62255 | 5381 ft | 270 kts | 17° |
| 2026-04-26 20:18 | 30.60201 | -81.61547 | 6516 ft | 275 kts | 16° |
| 2026-04-26 20:18 | 30.61961 | -81.60849 | 7519 ft | 279 kts | 16° |
| 2026-04-26 20:19 | 30.63812 | -81.60109 | 8542 ft | 284 kts | 16° |
| 2026-04-26 20:19 | 30.65700 | -81.59351 | 9657 ft | 289 kts | 16° |
| 2026-04-26 20:19 | 30.67637 | -81.58569 | 10315 ft | 305 kts | 16° |
| 2026-04-26 20:19 | 30.69726 | -81.57726 | 10674 ft | 330 kts | 16° |
| 2026-04-26 20:20 | 30.71971 | -81.56819 | 10956 ft | 353 kts | 17° |
| 2026-04-26 20:20 | 30.74336 | -81.55861 | 11160 ft | 376 kts | 17° |
| 2026-04-26 20:20 | 30.76857 | -81.54840 | 11594 ft | 389 kts | 17° |
| 2026-04-26 20:20 | 30.79431 | -81.53797 | 12264 ft | 394 kts | 17° |
| 2026-04-26 20:21 | 30.82032 | -81.52742 | 12969 ft | 398 kts | 17° |
| 2026-04-26 20:21 | 30.84660 | -81.51676 | 13655 ft | 402 kts | 17° |
| 2026-04-26 20:21 | 30.87303 | -81.50568 | 14262 ft | 406 kts | 18° |
| 2026-04-26 20:21 | 30.89949 | -81.49348 | 14853 ft | 411 kts | 19° |
| 2026-04-26 20:22 | 30.92605 | -81.48067 | 15429 ft | 415 kts | 18° |
| 2026-04-26 20:22 | 30.95371 | -81.47096 | 15965 ft | 417 kts | 10° |
| 2026-04-26 20:22 | 30.98178 | -81.46390 | 16513 ft | 420 kts | 8° |
| 2026-04-26 20:22 | 31.01051 | -81.45716 | 17062 ft | 423 kts | 7° |
| 2026-04-26 20:23 | 31.03953 | -81.45069 | 17571 ft | 427 kts | 7° |
| 2026-04-26 20:23 | 31.06883 | -81.44431 | 18081 ft | 430 kts | 7° |
| 2026-04-26 20:23 | 31.09843 | -81.43787 | 18524 ft | 434 kts | 7° |
| 2026-04-26 20:23 | 31.12821 | -81.43132 | 18948 ft | 437 kts | 7° |
| 2026-04-26 20:24 | 31.15818 | -81.42464 | 19361 ft | 441 kts | 7° |
| 2026-04-26 20:24 | 31.18841 | -81.41783 | 19780 ft | 444 kts | 7° |
| 2026-04-26 20:24 | 31.21887 | -81.41092 | 20204 ft | 447 kts | 7° |
| 2026-04-26 20:24 | 31.24954 | -81.40394 | 20627 ft | 450 kts | 7° |
| 2026-04-26 20:25 | 31.27989 | -81.39705 | 21058 ft | 451 kts | 7° |
| 2026-04-26 20:25 | 31.30074 | -81.39233 | 21324 ft | 453 kts | 7° |
| 2026-04-26 20:25 | 31.34185 | -81.38302 | 21817 ft | 457 kts | 7° |
| 2026-04-26 20:25 | 31.37311 | -81.37594 | 22190 ft | 459 kts | 7° |
| 2026-04-26 20:26 | 31.40460 | -81.36882 | 22551 ft | 462 kts | 7° |
| 2026-04-26 20:26 | 31.43625 | -81.36163 | 22904 ft | 464 kts | 7° |
| 2026-04-26 20:26 | 31.46803 | -81.35440 | 23249 ft | 467 kts | 7° |
| 2026-04-26 20:26 | 31.50002 | -81.34713 | 23566 ft | 470 kts | 7° |
| 2026-04-26 20:27 | 31.53215 | -81.33980 | 23883 ft | 470 kts | 7° |
| 2026-04-26 20:27 | 31.56432 | -81.33248 | 24208 ft | 471 kts | 7° |
| 2026-04-26 20:27 | 31.59612 | -81.32525 | 24494 ft | 473 kts | 7° |
| 2026-04-26 20:27 | 31.62847 | -81.31787 | 24791 ft | 474 kts | 7° |
| 2026-04-26 20:28 | 31.66086 | -81.31045 | 25067 ft | 476 kts | 7° |
| 2026-04-26 20:28 | 31.69343 | -81.30301 | 25331 ft | 478 kts | 7° |
| 2026-04-26 20:28 | 31.72615 | -81.29555 | 25605 ft | 479 kts | 7° |
| 2026-04-26 20:28 | 31.75891 | -81.28806 | 25863 ft | 481 kts | 7° |
| 2026-04-26 20:29 | 31.79180 | -81.28053 | 26141 ft | 482 kts | 6° |
| 2026-04-26 20:29 | 31.82478 | -81.27297 | 26441 ft | 483 kts | 6° |
| 2026-04-26 20:29 | 31.85773 | -81.26539 | 26793 ft | 482 kts | 6° |
| 2026-04-26 20:29 | 31.89016 | -81.25791 | 27169 ft | 481 kts | 6° |
| 2026-04-26 20:30 | 31.92292 | -81.25038 | 27577 ft | 480 kts | 6° |
| 2026-04-26 20:30 | 31.95569 | -81.24291 | 28020 ft | 478 kts | 6° |
| 2026-04-26 20:30 | 31.98825 | -81.23546 | 28513 ft | 477 kts | 6° |
| 2026-04-26 20:30 | 32.02030 | -81.22467 | 28967 ft | 482 kts | 15° |
| 2026-04-26 20:31 | 32.05077 | -81.20776 | 29442 ft | 488 kts | 24° |
| 2026-04-26 20:31 | 32.07898 | -81.18508 | 29962 ft | 493 kts | 30° |
| 2026-04-26 20:31 | 32.10638 | -81.16087 | 30372 ft | 491 kts | 30° |
| 2026-04-26 20:31 | 32.13371 | -81.13684 | 30777 ft | 489 kts | 30° |
| 2026-04-26 20:32 | 32.16065 | -81.11325 | 31179 ft | 487 kts | 29° |
| 2026-04-26 20:32 | 32.18779 | -81.08953 | 31593 ft | 485 kts | 29° |
| 2026-04-26 20:32 | 32.21493 | -81.06583 | 32012 ft | 484 kts | 28° |
| 2026-04-26 20:32 | 32.24192 | -81.04221 | 32432 ft | 482 kts | 28° |
| 2026-04-26 20:33 | 32.26877 | -81.01865 | 32854 ft | 480 kts | 28° |
| 2026-04-26 20:33 | 32.29554 | -80.99510 | 33275 ft | 479 kts | 28° |
| 2026-04-26 20:33 | 32.32214 | -80.97167 | 33794 ft | 476 kts | 28° |
| 2026-04-26 20:33 | 32.34864 | -80.94831 | 34210 ft | 474 kts | 28° |
| 2026-04-26 20:34 | 32.37501 | -80.92506 | 34636 ft | 472 kts | 28° |
| 2026-04-26 20:34 | 32.40126 | -80.90194 | 35065 ft | 470 kts | 28° |
| 2026-04-26 20:34 | 32.42717 | -80.87911 | 35461 ft | 469 kts | 28° |
| 2026-04-26 20:34 | 32.45324 | -80.85608 | 35794 ft | 468 kts | 28° |
| 2026-04-26 20:35 | 32.47929 | -80.83302 | 36130 ft | 467 kts | 29° |
| 2026-04-26 20:35 | 32.50528 | -80.80999 | 36459 ft | 466 kts | 29° |
| 2026-04-26 20:35 | 32.53121 | -80.78703 | 36781 ft | 465 kts | 29° |
| 2026-04-26 20:35 | 32.55713 | -80.76407 | 36947 ft | 465 kts | 29° |
| 2026-04-26 20:36 | 32.58301 | -80.74111 | 36933 ft | 465 kts | 29° |
| 2026-04-26 20:36 | 32.63476 | -80.69516 | 36938 ft | 465 kts | 29° |
| 2026-04-26 20:37 | 32.68612 | -80.64949 | 36944 ft | 465 kts | 29° |
| 2026-04-26 20:37 | 32.74029 | -80.60980 | 36956 ft | 453 kts | 19° |
| 2026-04-26 20:38 | 32.79681 | -80.57644 | 36954 ft | 454 kts | 19° |
| 2026-04-26 20:38 | 32.85331 | -80.54296 | 36997 ft | 454 kts | 19° |
| 2026-04-26 20:39 | 32.90985 | -80.50932 | 36980 ft | 455 kts | 19° |
| 2026-04-26 20:39 | 32.96605 | -80.47574 | 36970 ft | 456 kts | 20° |
| 2026-04-26 20:40 | 33.02271 | -80.44191 | 36961 ft | 456 kts | 19° |
| 2026-04-26 20:40 | 33.07949 | -80.40799 | 36953 ft | 457 kts | 19° |
| 2026-04-26 20:41 | 33.13630 | -80.37398 | 36954 ft | 457 kts | 20° |
| 2026-04-26 20:41 | 33.19267 | -80.34011 | 36957 ft | 457 kts | 20° |
| 2026-04-26 20:42 | 33.24953 | -80.30596 | 36957 ft | 457 kts | 20° |
| 2026-04-26 20:42 | 33.30639 | -80.27187 | 37005 ft | 457 kts | 19° |
| 2026-04-26 20:43 | 33.36328 | -80.23771 | 36999 ft | 457 kts | 20° |
| 2026-04-26 20:43 | 33.41978 | -80.20363 | 36999 ft | 458 kts | 20° |
| 2026-04-26 20:44 | 33.47664 | -80.16925 | 37002 ft | 458 kts | 20° |
| 2026-04-26 20:44 | 33.53352 | -80.13487 | 36984 ft | 458 kts | 20° |
| 2026-04-26 20:45 | 33.59053 | -80.10037 | 37009 ft | 460 kts | 20° |
| 2026-04-26 20:45 | 33.64697 | -80.06369 | 36996 ft | 468 kts | 28° |
| 2026-04-26 20:46 | 33.69704 | -80.01332 | 36996 ft | 474 kts | 35° |
| 2026-04-26 20:46 | 33.74666 | -79.96109 | 36997 ft | 475 kts | 35° |
| 2026-04-26 20:47 | 33.79601 | -79.90922 | 36989 ft | 475 kts | 35° |
| 2026-04-26 20:47 | 33.84584 | -79.85691 | 37025 ft | 475 kts | 34° |
| 2026-04-26 20:48 | 33.89527 | -79.80492 | 37021 ft | 475 kts | 35° |
| 2026-04-26 20:48 | 33.94502 | -79.75245 | 37021 ft | 476 kts | 35° |
| 2026-04-26 20:49 | 33.99480 | -79.69986 | 37028 ft | 476 kts | 35° |
| 2026-04-26 20:49 | 34.04464 | -79.64707 | 37047 ft | 477 kts | 35° |
| 2026-04-26 20:50 | 34.09444 | -79.59423 | 37046 ft | 477 kts | 35° |
| 2026-04-26 20:50 | 34.14400 | -79.54167 | 37044 ft | 477 kts | 35° |
| 2026-04-26 20:51 | 34.19385 | -79.48866 | 37051 ft | 477 kts | 36° |
| 2026-04-26 20:51 | 34.24363 | -79.43561 | 37054 ft | 477 kts | 35° |
| 2026-04-26 20:52 | 34.29352 | -79.38249 | 37079 ft | 478 kts | 36° |
| 2026-04-26 20:52 | 34.34307 | -79.32951 | 37060 ft | 479 kts | 36° |
| 2026-04-26 20:53 | 34.39299 | -79.27594 | 37047 ft | 479 kts | 36° |
| 2026-04-26 20:53 | 34.44563 | -79.22772 | 37036 ft | 470 kts | 23° |
| 2026-04-26 20:54 | 34.50376 | -79.19216 | 37051 ft | 468 kts | 21° |
| 2026-04-26 20:54 | 34.56189 | -79.15671 | 37068 ft | 468 kts | 21° |
| 2026-04-26 20:55 | 34.61955 | -79.12135 | 37063 ft | 468 kts | 21° |
| 2026-04-26 20:55 | 34.67764 | -79.08573 | 37060 ft | 468 kts | 21° |
| 2026-04-26 20:56 | 34.73573 | -79.05009 | 37058 ft | 468 kts | 21° |
| 2026-04-26 20:56 | 34.79385 | -79.01437 | 37076 ft | 468 kts | 22° |
| 2026-04-26 20:57 | 34.85205 | -78.97858 | 37082 ft | 469 kts | 22° |
| 2026-04-26 20:57 | 34.90983 | -78.94298 | 37079 ft | 469 kts | 22° |
| 2026-04-26 20:58 | 34.96792 | -78.90693 | 37077 ft | 469 kts | 22° |
| 2026-04-26 20:58 | 35.02607 | -78.87090 | 37093 ft | 469 kts | 22° |
| 2026-04-26 20:59 | 35.08422 | -78.83496 | 37071 ft | 468 kts | 22° |
| 2026-04-26 20:59 | 35.14227 | -78.79888 | 37067 ft | 468 kts | 22° |
| 2026-04-26 21:00 | 35.19993 | -78.76303 | 37072 ft | 468 kts | 22° |
| 2026-04-26 21:00 | 35.25792 | -78.72692 | 37122 ft | 468 kts | 22° |
| 2026-04-26 21:01 | 35.31590 | -78.69078 | 37118 ft | 467 kts | 22° |
| 2026-04-26 21:01 | 35.37390 | -78.65455 | 37096 ft | 468 kts | 23° |
| 2026-04-26 21:02 | 35.43152 | -78.61845 | 37089 ft | 469 kts | 23° |
| 2026-04-26 21:02 | 35.48969 | -78.58203 | 37086 ft | 469 kts | 23° |
| 2026-04-26 21:03 | 35.54789 | -78.54559 | 37082 ft | 470 kts | 23° |
| 2026-04-26 21:03 | 35.60606 | -78.50901 | 37087 ft | 470 kts | 23° |
| 2026-04-26 21:04 | 35.66427 | -78.47227 | 37089 ft | 470 kts | 23° |
| 2026-04-26 21:04 | 35.72202 | -78.43579 | 37113 ft | 470 kts | 23° |
| 2026-04-26 21:05 | 35.78018 | -78.39908 | 37108 ft | 470 kts | 23° |
| 2026-04-26 21:05 | 35.83833 | -78.36239 | 37109 ft | 469 kts | 23° |
| 2026-04-26 21:06 | 35.89640 | -78.32560 | 37142 ft | 469 kts | 23° |
| 2026-04-26 21:06 | 35.95405 | -78.28900 | 37157 ft | 469 kts | 24° |
| 2026-04-26 21:07 | 36.01206 | -78.25218 | 37153 ft | 469 kts | 24° |
| 2026-04-26 21:07 | 36.07005 | -78.21527 | 37149 ft | 468 kts | 24° |
| 2026-04-26 21:08 | 36.12795 | -78.17845 | 37138 ft | 468 kts | 24° |
| 2026-04-26 21:08 | 36.18586 | -78.14150 | 37148 ft | 468 kts | 24° |
| 2026-04-26 21:09 | 36.24336 | -78.10468 | 37143 ft | 468 kts | 24° |
| 2026-04-26 21:09 | 36.30116 | -78.06765 | 37133 ft | 468 kts | 24° |
| 2026-04-26 21:10 | 36.35899 | -78.03065 | 37134 ft | 468 kts | 24° |
| 2026-04-26 21:10 | 36.41863 | -77.99934 | 37137 ft | 464 kts | 17° |
| 2026-04-26 21:11 | 36.47869 | -77.97138 | 37142 ft | 464 kts | 17° |
| 2026-04-26 21:11 | 36.53913 | -77.94327 | 37135 ft | 464 kts | 17° |
| 2026-04-26 21:12 | 36.59969 | -77.91512 | 37184 ft | 465 kts | 17° |
| 2026-04-26 21:12 | 36.66028 | -77.88681 | 37202 ft | 465 kts | 18° |
| 2026-04-26 21:13 | 36.72090 | -77.85840 | 37194 ft | 465 kts | 18° |
| 2026-04-26 21:13 | 36.78102 | -77.83018 | 37182 ft | 465 kts | 18° |
| 2026-04-26 21:14 | 36.84156 | -77.80185 | 37165 ft | 465 kts | 18° |
| 2026-04-26 21:14 | 36.90210 | -77.77343 | 37016 ft | 464 kts | 18° |
| 2026-04-26 21:14 | 36.93221 | -77.75924 | 36753 ft | 463 kts | 18° |
| 2026-04-26 21:15 | 36.96235 | -77.74503 | 36495 ft | 463 kts | 18° |
| 2026-04-26 21:15 | 36.99249 | -77.73081 | 36244 ft | 463 kts | 18° |
| 2026-04-26 21:15 | 37.02219 | -77.71677 | 36002 ft | 463 kts | 18° |
| 2026-04-26 21:15 | 37.05237 | -77.70246 | 35753 ft | 464 kts | 18° |
| 2026-04-26 21:16 | 37.08251 | -77.68816 | 35523 ft | 464 kts | 18° |
| 2026-04-26 21:16 | 37.11267 | -77.67389 | 35278 ft | 463 kts | 18° |
| 2026-04-26 21:16 | 37.14278 | -77.65968 | 35017 ft | 462 kts | 18° |
| 2026-04-26 21:16 | 37.17301 | -77.64540 | 34085 ft | 467 kts | 19° |
| 2026-04-26 21:17 | 37.20349 | -77.63095 | 33138 ft | 468 kts | 19° |
| 2026-04-26 21:17 | 37.23382 | -77.61653 | 32296 ft | 465 kts | 19° |
| 2026-04-26 21:17 | 37.26415 | -77.60210 | 31303 ft | 466 kts | 19° |
| 2026-04-26 21:17 | 37.29447 | -77.58767 | 30337 ft | 466 kts | 19° |
| 2026-04-26 21:18 | 37.32486 | -77.57321 | 29121 ft | 468 kts | 19° |
| 2026-04-26 21:18 | 37.35496 | -77.55888 | 27876 ft | 469 kts | 19° |
| 2026-04-26 21:18 | 37.38548 | -77.54436 | 26595 ft | 470 kts | 19° |
| 2026-04-26 21:18 | 37.41610 | -77.52978 | 25286 ft | 471 kts | 20° |
| 2026-04-26 21:19 | 37.44674 | -77.51515 | 24031 ft | 472 kts | 20° |
| 2026-04-26 21:19 | 37.47704 | -77.50068 | 23546 ft | 455 kts | 20° |
| 2026-04-26 21:19 | 37.50564 | -77.48694 | 23344 ft | 424 kts | 20° |
| 2026-04-26 21:19 | 37.53227 | -77.47411 | 23091 ft | 396 kts | 20° |
| 2026-04-26 21:20 | 37.55742 | -77.46199 | 22468 ft | 381 kts | 20° |
| 2026-04-26 21:20 | 37.58192 | -77.45027 | 21768 ft | 372 kts | 19° |
| 2026-04-26 21:20 | 37.60638 | -77.44196 | 21358 ft | 366 kts | 13° |
| 2026-04-26 21:20 | 37.63107 | -77.43455 | 21103 ft | 363 kts | 13° |
| 2026-04-26 21:21 | 37.65555 | -77.42704 | 20805 ft | 361 kts | 13° |
| 2026-04-26 21:21 | 37.67989 | -77.41947 | 20390 ft | 358 kts | 13° |
| 2026-04-26 21:21 | 37.70397 | -77.41195 | 19982 ft | 355 kts | 13° |
| 2026-04-26 21:21 | 37.72786 | -77.40447 | 19573 ft | 352 kts | 13° |
| 2026-04-26 21:22 | 37.75158 | -77.39709 | 19163 ft | 350 kts | 13° |
| 2026-04-26 21:22 | 37.77509 | -77.38986 | 18760 ft | 347 kts | 13° |
| 2026-04-26 21:22 | 37.79847 | -77.38268 | 18345 ft | 344 kts | 13° |
| 2026-04-26 21:23 | 37.84470 | -77.36839 | 17523 ft | 340 kts | 13° |
| 2026-04-26 21:23 | 37.86736 | -77.36139 | 17136 ft | 339 kts | 13° |
| 2026-04-26 21:23 | 37.89019 | -77.35436 | 16738 ft | 337 kts | 13° |
| 2026-04-26 21:23 | 37.91290 | -77.34736 | 16351 ft | 335 kts | 13° |
| 2026-04-26 21:24 | 37.93554 | -77.34039 | 15963 ft | 334 kts | 13° |
| 2026-04-26 21:24 | 37.95805 | -77.33345 | 15569 ft | 332 kts | 13° |
| 2026-04-26 21:24 | 37.98044 | -77.32652 | 15178 ft | 331 kts | 13° |
| 2026-04-26 21:24 | 38.00271 | -77.31962 | 14805 ft | 329 kts | 13° |
| 2026-04-26 21:25 | 38.02486 | -77.31277 | 14420 ft | 327 kts | 13° |
| 2026-04-26 21:25 | 38.04666 | -77.30604 | 14054 ft | 325 kts | 13° |
| 2026-04-26 21:25 | 38.06834 | -77.29936 | 13864 ft | 315 kts | 13° |
| 2026-04-26 21:25 | 38.08918 | -77.29292 | 13729 ft | 303 kts | 13° |
| 2026-04-26 21:26 | 38.10934 | -77.28661 | 13526 ft | 294 kts | 13° |
| 2026-04-26 21:26 | 38.12908 | -77.28044 | 13175 ft | 291 kts | 13° |
| 2026-04-26 21:26 | 38.14874 | -77.27426 | 12795 ft | 290 kts | 13° |
| 2026-04-26 21:26 | 38.16825 | -77.26810 | 12413 ft | 288 kts | 13° |
| 2026-04-26 21:27 | 38.18766 | -77.26197 | 12031 ft | 287 kts | 13° |
| 2026-04-26 21:27 | 38.20701 | -77.25586 | 11651 ft | 286 kts | 13° |
| 2026-04-26 21:27 | 38.22625 | -77.24978 | 11277 ft | 284 kts | 13° |
| 2026-04-26 21:27 | 38.24510 | -77.24379 | 10910 ft | 283 kts | 13° |
| 2026-04-26 21:28 | 38.26413 | -77.23773 | 10528 ft | 281 kts | 13° |
| 2026-04-26 21:28 | 38.28308 | -77.23169 | 10144 ft | 280 kts | 13° |
| 2026-04-26 21:28 | 38.30196 | -77.22568 | 9754 ft | 278 kts | 13° |
| 2026-04-26 21:28 | 38.32063 | -77.21972 | 9384 ft | 275 kts | 14° |
| 2026-04-26 21:29 | 38.33825 | -77.21064 | 9004 ft | 273 kts | 29° |
| 2026-04-26 21:29 | 38.35339 | -77.19603 | 8593 ft | 273 kts | 40° |
| 2026-04-26 21:29 | 38.36749 | -77.18004 | 8175 ft | 271 kts | 40° |
| 2026-04-26 21:29 | 38.38130 | -77.16450 | 7820 ft | 266 kts | 40° |
| 2026-04-26 21:30 | 38.39516 | -77.14891 | 7424 ft | 264 kts | 40° |
| 2026-04-26 21:30 | 38.40882 | -77.13354 | 7048 ft | 261 kts | 40° |
| 2026-04-26 21:30 | 38.42232 | -77.11830 | 6651 ft | 258 kts | 40° |
| 2026-04-26 21:30 | 38.43136 | -77.10810 | 6376 ft | 256 kts | 41° |
| 2026-04-26 21:31 | 38.44889 | -77.08828 | 5869 ft | 253 kts | 41° |
| 2026-04-26 21:31 | 38.46198 | -77.07347 | 5505 ft | 251 kts | 41° |
| 2026-04-26 21:31 | 38.47498 | -77.05877 | 5142 ft | 249 kts | 41° |
| 2026-04-26 21:31 | 38.48790 | -77.04416 | 4766 ft | 247 kts | 41° |
| 2026-04-26 21:32 | 38.50074 | -77.02963 | 4409 ft | 245 kts | 41° |
| 2026-04-26 21:32 | 38.51484 | -77.01761 | 4052 ft | 246 kts | 25° |
| 2026-04-26 21:32 | 38.53100 | -77.01149 | 3699 ft | 246 kts | 8° |
| 2026-04-26 21:32 | 38.54762 | -77.01143 | 3555 ft | 234 kts | 358° |
| 2026-04-26 21:33 | 38.56343 | -77.01264 | 3426 ft | 221 kts | 359° |
| 2026-04-26 21:33 | 38.57839 | -77.01368 | 3295 ft | 210 kts | 359° |
| 2026-04-26 21:33 | 38.59261 | -77.01464 | 3163 ft | 200 kts | 359° |
| 2026-04-26 21:33 | 38.60616 | -77.01555 | 3030 ft | 192 kts | 359° |
| 2026-04-26 21:34 | 38.61992 | -77.01644 | 2911 ft | 208 kts | 359° |
| 2026-04-26 21:34 | 38.63468 | -77.01666 | 2775 ft | 215 kts | 0° |
| 2026-04-26 21:34 | 38.64966 | -77.01757 | 2644 ft | 216 kts | 357° |
| 2026-04-26 21:34 | 38.66456 | -77.01896 | 2517 ft | 211 kts | 358° |
| 2026-04-26 21:35 | 38.67867 | -77.02038 | 2431 ft | 198 kts | 358° |
| 2026-04-26 21:35 | 38.69187 | -77.02171 | 2431 ft | 184 kts | 357° |
| 2026-04-26 21:35 | 38.70440 | -77.02296 | 2294 ft | 177 kts | 358° |
| 2026-04-26 21:35 | 38.71629 | -77.02416 | 2181 ft | 166 kts | 358° |
| 2026-04-26 21:36 | 38.72754 | -77.02529 | 2108 ft | 159 kts | 358° |
| 2026-04-26 21:36 | 38.73478 | -77.02601 | 2089 ft | 158 kts | 357° |
| 2026-04-26 21:36 | 38.74933 | -77.02747 | 1865 ft | 155 kts | 357° |
| 2026-04-26 21:36 | 38.75991 | -77.02853 | 1675 ft | 148 kts | 358° |
| 2026-04-26 21:37 | 38.76982 | -77.02954 | 1480 ft | 137 kts | 358° |
| 2026-04-26 21:37 | 38.77880 | -77.03044 | 1308 ft | 127 kts | 358° |
| 2026-04-26 21:37 | 38.78736 | -77.03130 | 1135 ft | 122 kts | 358° |
| 2026-04-26 21:37 | 38.79573 | -77.03214 | 966 ft | 120 kts | 358° |
| 2026-04-26 21:38 | 38.80401 | -77.03308 | 822 ft | 120 kts | 356° |
| 2026-04-26 21:38 | 38.81247 | -77.03409 | 625 ft | 126 kts | 358° |
| 2026-04-26 21:38 | 38.82140 | -77.03452 | 479 ft | 129 kts | 356° |
| 2026-04-26 21:38 | 38.83030 | -77.03568 | 276 ft | 124 kts | 357° |
| 2026-04-26 21:39 | 38.83854 | -77.03644 | 125 ft | 116 kts | 356° |
| 2026-04-26 21:39 | 38.84642 | -77.03725 | 25 ft | 108 kts | 355° |
| 2026-04-26 21:39 | 38.85238 | -77.03785 | 23 ft | 64 kts | 355° |
| 2026-04-26 21:39 | 38.85483 | -77.03821 | 25 ft | 15 kts | 333° |
| 2026-04-26 21:40 | 38.85535 | -77.03899 | 29 ft | 9 kts | 309° |
| 2026-04-26 21:40 | 38.85548 | -77.03920 | 27 ft | 2 kts | 309° |
| 2026-04-26 21:40 | 38.85560 | -77.03938 | 25 ft | 4 kts | 310° |
| 2026-04-26 21:40 | 38.85585 | -77.03965 | 25 ft | 6 kts | 324° |
| 2026-04-26 21:41 | 38.85621 | -77.03999 | 25 ft | 7 kts | 323° |
| 2026-04-26 21:41 | 38.85641 | -77.04019 | 25 ft | 0 kts | 322° |
| 2026-04-26 21:41 | 38.85643 | -77.04022 | 25 ft | 1 kts | 322° |
| 2026-04-26 21:41 | 38.85655 | -77.04033 | 25 ft | 3 kts | 322° |
| 2026-04-26 21:42 | 38.85675 | -77.04054 | 25 ft | 4 kts | 321° |
| 2026-04-26 21:42 | 38.85704 | -77.04084 | 27 ft | 6 kts | 317° |
| 2026-04-26 21:42 | 38.85694 | -77.04133 | 26 ft | 7 kts | 230° |
| 2026-04-26 21:42 | 38.85670 | -77.04170 | 26 ft | 2 kts | 231° |
| 2026-04-26 21:43 | 38.85668 | -77.04173 | 24 ft | 0 kts | 231° |